Time;durP1;ratioP1;P1;durP2;ratioP2;P2;SDS_P1;SDS_P2;PMS_P1;PMS_P2;Temp;Humidity;BMP_temperature;BMP_pressure;BME280_temperature;BME280_humidity;BME280_pressure;Samples;Min_cycle;Max_cycle;Signal;HPM_P1;HPM_P2
2023/01/06 00:00:20;;;;;;;;;;;11.80;99.90;12.30;100358.00;;;;338428;28;89619;-92
2023/01/06 00:00:33;;;;;;;;;;;11.90;99.90;12.30;100360.00;;;;338956;28;82447;-92
2023/01/06 00:00:45;;;;;;;;;;;11.80;99.90;12.40;100362.00;;;;336858;28;90162;-92
2023/01/06 00:01:07;;;;;;;;;;;11.90;99.90;12.30;100362.00;;;;338516;28;82566;-91
2023/01/06 00:01:19;;;;;;;;;;;11.90;99.90;12.30;100351.00;;;;340479;28;90837;-92
2023/01/06 00:01:32;;;;;;;;;;;11.90;99.90;12.30;100355.00;;;;341138;28;82534;-91
2023/01/06 00:01:44;;;;;;;;;;;11.90;99.90;12.30;100361.00;;;;338171;28;90759;-93
2023/01/06 00:02:00;;;;;;;;;;;11.90;99.90;12.20;100357.00;;;;337900;28;83317;-92
2023/01/06 00:02:12;;;;;;;;;;;11.90;99.90;12.30;100356.00;;;;338747;28;92193;-92
2023/01/06 00:02:23;;;;;;;;;;;11.90;99.90;12.30;100357.00;;;;340531;28;83499;-92
2023/01/06 00:02:35;;;;;;;;;;;11.90;99.90;12.20;100351.00;;;;340007;28;91714;-91
2023/01/06 00:02:47;;;;;;;;;;;11.80;99.90;12.20;100352.00;;;;339114;28;83533;-92
2023/01/06 00:02:59;;;;;;;;;;;11.90;99.90;12.20;100358.00;;;;344320;28;90429;-92
2023/01/06 00:03:11;;;;;;;;;;;11.80;99.90;12.20;100355.00;;;;339176;28;83577;-92
2023/01/06 00:03:22;;;;;;;;;;;11.80;99.90;12.20;100357.00;;;;337260;28;89601;-92
2023/01/06 00:03:34;;;;;;;;;;;11.90;99.90;12.20;100356.00;;;;339152;28;83568;-91
2023/01/06 00:03:50;;;;;;;;;;;11.80;99.90;12.20;100355.00;;;;338772;28;90225;-92
2023/01/06 00:04:02;;;;;;;;;;;11.90;99.90;12.20;100361.00;;;;339143;28;83554;-93
2023/01/06 00:04:14;;;;;;;;;;;11.80;99.90;12.20;100355.00;;;;338447;28;91615;-92
2023/01/06 00:04:26;;;;;;;;;;;11.80;99.90;12.20;100353.00;;;;339158;28;82428;-92
2023/01/06 00:04:38;;;;;;;;;;;11.80;99.90;12.20;100361.00;;;;341175;27;90530;-92
2023/01/06 00:04:50;;;;;;;;;;;11.80;99.90;12.30;100360.00;;;;337628;28;83364;-91
2023/01/06 00:05:02;;;;;;;;;;;11.90;99.90;12.20;100362.00;;;;340003;28;91577;-92
2023/01/06 00:05:14;;;;;;;;;;;11.80;99.90;12.20;100350.00;;;;340427;28;83354;-92
2023/01/06 00:05:27;;;;;;;;;;;11.90;99.90;12.10;100361.00;;;;339923;28;90539;-91
2023/01/06 00:05:39;;;;;;;;;;;11.80;99.90;12.10;100359.00;;;;339227;28;83480;-91
2023/01/06 00:05:56;;;;;;;;;;;11.80;99.90;12.20;100354.00;;;;339950;28;91093;-92
2023/01/06 00:06:09;;;;;;;;;;;11.80;99.90;12.20;100353.00;;;;339276;28;82358;-92
2023/01/06 00:06:26;;;;;;;;;;;11.80;99.90;12.20;100361.00;;;;338729;28;91879;-92
2023/01/06 00:06:38;;;;;;;;;;;11.80;99.90;12.10;100365.00;;;;339228;28;82479;-92
2023/01/06 00:06:50;;;;;;;;;;;11.80;99.90;12.10;100354.00;;;;337409;28;90376;-92
2023/01/06 00:07:01;;;;;;;;;;;11.80;99.90;12.00;100348.00;;;;337961;28;83361;-91
2023/01/06 00:07:13;;;;;;;;;;;11.80;99.90;12.00;100363.00;;;;339856;28;90370;-92
2023/01/06 00:07:25;;;;;;;;;;;11.80;99.90;12.00;100348.00;;;;337667;28;83436;-91
2023/01/06 00:07:38;;;;;;;;;;;11.80;99.90;12.10;100354.00;;;;338873;28;91070;-91
2023/01/06 00:07:50;;;;;;;;;;;11.80;99.90;12.00;100353.00;;;;339168;28;83484;-93
2023/01/06 00:08:02;;;;;;;;;;;11.80;99.90;12.10;100353.00;;;;338673;28;91401;-93
2023/01/06 00:08:14;;;;;;;;;;;11.80;99.90;12.10;100354.00;;;;339250;28;82418;-92
2023/01/06 00:08:25;;;;;;;;;;;11.80;99.90;12.10;100356.00;;;;338689;28;92471;-91
2023/01/06 00:08:37;;;;;;;;;;;11.80;99.90;12.10;100350.00;;;;338182;28;82603;-91
2023/01/06 00:08:49;;;;;;;;;;;11.80;99.90;12.10;100357.00;;;;346778;28;89545;-91
2023/01/06 00:09:02;;;;;;;;;;;11.80;99.90;12.10;100358.00;;;;339254;28;83589;-91
2023/01/06 00:09:14;;;;;;;;;;;11.80;99.90;12.10;100354.00;;;;336087;28;91801;-93
2023/01/06 00:09:26;;;;;;;;;;;11.80;99.90;12.10;100355.00;;;;337773;28;82504;-92
2023/01/06 00:09:38;;;;;;;;;;;11.80;99.90;12.10;100351.00;;;;337558;28;90414;-91
2023/01/06 00:09:49;;;;;;;;;;;11.80;99.90;12.10;100352.00;;;;337686;28;83770;-92
2023/01/06 00:10:01;;;;;;;;;;;11.80;99.90;12.10;100353.00;;;;338453;28;90930;-92
2023/01/06 00:10:13;;;;;;;;;;;11.80;99.90;12.10;100353.00;;;;340271;28;83535;-92
2023/01/06 00:10:25;;;;;;;;;;;11.80;99.90;12.10;100352.00;;;;336105;28;90483;-92
2023/01/06 00:10:37;;;;;;;;;;;11.80;99.90;12.10;100350.00;;;;339177;28;83313;-92
2023/01/06 00:10:49;;;;;;;;;;;11.80;99.90;12.20;100350.00;;;;338612;28;90281;-91
2023/01/06 00:11:10;;;;;;;;;;;11.80;99.90;12.20;100351.00;;;;339231;28;83454;-92
2023/01/06 00:11:22;;;;;;;;;;;11.80;99.90;12.10;100351.00;;;;338674;28;90502;-92
2023/01/06 00:11:34;;;;;;;;;;;11.80;99.90;12.10;100351.00;;;;337904;28;83454;-92
2023/01/06 00:11:46;;;;;;;;;;;11.80;99.90;12.20;100346.00;;;;337506;28;90133;-92
2023/01/06 00:11:58;;;;;;;;;;;11.80;99.90;12.20;100357.00;;;;337913;28;83480;-93
2023/01/06 00:12:09;;;;;;;;;;;11.80;99.90;12.20;100345.00;;;;338902;28;90176;-92
2023/01/06 00:12:21;;;;;;;;;;;11.80;99.90;12.20;100359.00;;;;337772;28;83311;-92
2023/01/06 00:12:33;;;;;;;;;;;11.80;99.90;12.20;100357.00;;;;337482;28;92211;-92
2023/01/06 00:12:45;;;;;;;;;;;11.80;99.90;12.20;100349.00;;;;336443;28;83492;-92
2023/01/06 00:12:57;;;;;;;;;;;11.80;99.90;12.20;100343.00;;;;337328;28;89104;-92
2023/01/06 00:13:09;;;;;;;;;;;11.80;99.90;12.30;100355.00;;;;337914;28;83273;-92
2023/01/06 00:13:21;;;;;;;;;;;11.80;99.90;12.20;100360.00;;;;338780;28;90257;-91
2023/01/06 00:13:33;;;;;;;;;;;11.80;99.90;12.20;100348.00;;;;337890;28;82501;-92
2023/01/06 00:13:45;;;;;;;;;;;11.80;99.90;12.10;100353.00;;;;338784;28;91545;-92
2023/01/06 00:13:58;;;;;;;;;;;11.80;99.90;12.10;100357.00;;;;337709;28;83215;-92
2023/01/06 00:14:09;;;;;;;;;;;11.80;99.90;12.10;100355.00;;;;344726;28;91585;-92
2023/01/06 00:14:21;;;;;;;;;;;11.80;99.90;12.10;100363.00;;;;340461;28;82590;-92
2023/01/06 00:14:33;;;;;;;;;;;11.80;99.90;12.10;100349.00;;;;340063;28;91122;-92
2023/01/06 00:14:46;;;;;;;;;;;11.80;99.90;12.20;100352.00;;;;340515;28;82503;-92
2023/01/06 00:14:58;;;;;;;;;;;11.80;99.90;12.20;100357.00;;;;341297;28;89854;-91
2023/01/06 00:15:10;;;;;;;;;;;11.80;99.90;12.20;100345.00;;;;339101;28;82590;-92
2023/01/06 00:15:21;;;;;;;;;;;11.80;99.90;12.10;100358.00;;;;338718;28;91739;-92
2023/01/06 00:15:36;;;;;;;;;;;11.80;99.90;12.10;100349.00;;;;339040;28;83267;-92
2023/01/06 00:15:48;;;;;;;;;;;11.80;99.90;12.10;100355.00;;;;337353;28;91760;-92
2023/01/06 00:16:05;;;;;;;;;;;11.80;99.90;12.10;100353.00;;;;340456;28;83570;-90
2023/01/06 00:16:18;;;;;;;;;;;11.80;99.90;12.10;100355.00;;;;340198;28;89550;-92
2023/01/06 00:16:30;;;;;;;;;;;11.80;99.90;12.10;100359.00;;;;340424;28;83660;-92
2023/01/06 00:16:42;;;;;;;;;;;11.80;99.90;12.10;100354.00;;;;345621;28;92689;-92
2023/01/06 00:16:53;;;;;;;;;;;11.80;99.90;12.10;100354.00;;;;345787;28;83488;-92
2023/01/06 00:17:05;;;;;;;;;;;11.80;99.90;12.10;100355.00;;;;340124;28;91462;-92
2023/01/06 00:17:17;;;;;;;;;;;11.80;99.90;12.20;100351.00;;;;337827;28;83513;-92
2023/01/06 00:17:29;;;;;;;;;;;11.80;99.90;12.20;100346.00;;;;338708;28;91649;-91
2023/01/06 00:17:41;;;;;;;;;;;11.80;99.90;12.10;100353.00;;;;337914;28;83159;-92
2023/01/06 00:17:53;;;;;;;;;;;11.80;99.90;12.20;100353.00;;;;337456;28;91290;-92
2023/01/06 00:18:05;;;;;;;;;;;11.80;99.90;12.30;100351.00;;;;339195;28;83454;-92
2023/01/06 00:18:16;;;;;;;;;;;11.80;99.90;12.20;100350.00;;;;336073;28;90817;-92
2023/01/06 00:18:28;;;;;;;;;;;11.80;99.90;12.30;100354.00;;;;339171;28;83190;-92
2023/01/06 00:18:40;;;;;;;;;;;11.80;99.90;12.30;100351.00;;;;337317;28;92769;-92
2023/01/06 00:18:56;;;;;;;;;;;11.80;99.90;12.30;100358.00;;;;339256;28;83433;-92
2023/01/06 00:19:09;;;;;;;;;;;11.80;99.90;12.20;100351.00;;;;340085;28;90455;-91
2023/01/06 00:19:21;;;;;;;;;;;11.80;99.90;12.20;100349.00;;;;339067;28;82608;-92
2023/01/06 00:19:33;;;;;;;;;;;11.80;99.90;12.20;100346.00;;;;338795;28;90264;-92
2023/01/06 00:19:44;;;;;;;;;;;11.80;99.90;12.10;100354.00;;;;338999;28;82433;-92
2023/01/06 00:19:57;;;;;;;;;;;11.80;99.90;12.20;100349.00;;;;338738;28;90429;-92
2023/01/06 00:20:10;;;;;;;;;;;11.80;99.90;12.10;100351.00;;;;341557;28;83452;-92
2023/01/06 00:20:21;;;;;;;;;;;11.80;99.90;12.10;100354.00;;;;337474;28;91570;-92
2023/01/06 00:20:33;;;;;;;;;;;11.80;99.90;12.00;100349.00;;;;339057;28;83922;-92
2023/01/06 00:20:45;;;;;;;;;;;11.80;99.90;12.10;100352.00;;;;340106;28;90712;-92
2023/01/06 00:20:58;;;;;;;;;;;11.80;99.90;12.10;100350.00;;;;340447;28;83340;-92
2023/01/06 00:21:10;;;;;;;;;;;11.80;99.90;12.20;100351.00;;;;340108;28;90991;-92
2023/01/06 00:21:22;;;;;;;;;;;11.80;99.90;12.30;100347.00;;;;337837;28;82603;-92
2023/01/06 00:21:34;;;;;;;;;;;11.80;99.90;12.30;100344.00;;;;337425;28;91776;-92
2023/01/06 00:21:46;;;;;;;;;;;11.80;99.90;12.30;100349.00;;;;340432;28;83360;-91
2023/01/06 00:21:57;;;;;;;;;;;11.80;99.90;12.20;100343.00;;;;338504;28;90382;-92
2023/01/06 00:22:09;;;;;;;;;;;11.80;99.90;12.10;100344.00;;;;340632;28;82473;-92
2023/01/06 00:22:21;;;;;;;;;;;11.80;99.90;12.10;100345.00;;;;345652;28;91343;-92
2023/01/06 00:22:32;;;;;;;;;;;11.80;99.90;12.10;100346.00;;;;343477;28;82468;-91
2023/01/06 00:22:44;;;;;;;;;;;11.80;99.90;12.20;100348.00;;;;338759;28;91263;-92
2023/01/06 00:22:57;;;;;;;;;;;11.80;99.90;12.20;100346.00;;;;339176;28;82438;-93
2023/01/06 00:23:09;;;;;;;;;;;11.80;99.90;12.20;100345.00;;;;337478;28;90289;-92
2023/01/06 00:23:21;;;;;;;;;;;11.80;99.90;12.20;100348.00;;;;337819;28;83430;-92
2023/01/06 00:23:33;;;;;;;;;;;11.80;99.90;12.20;100344.00;;;;337405;28;90110;-92
2023/01/06 00:23:45;;;;;;;;;;;11.80;99.90;12.20;100348.00;;;;337911;28;83320;-92
2023/01/06 00:23:57;;;;;;;;;;;11.80;99.90;12.20;100349.00;;;;338705;28;90996;-92
2023/01/06 00:24:08;;;;;;;;;;;11.80;99.90;12.20;100342.00;;;;339232;28;83334;-92
2023/01/06 00:24:20;;;;;;;;;;;11.80;99.90;12.20;100344.00;;;;338788;28;90534;-92
2023/01/06 00:24:32;;;;;;;;;;;11.80;99.90;12.10;100353.00;;;;339163;28;82498;-92
2023/01/06 00:24:44;;;;;;;;;;;11.80;99.90;12.20;100343.00;;;;339958;28;92784;-92
2023/01/06 00:24:57;;;;;;;;;;;11.80;99.90;12.30;100350.00;;;;341750;28;83456;-93
2023/01/06 00:25:09;;;;;;;;;;;11.80;99.90;12.30;100349.00;;;;338793;28;91480;-92
2023/01/06 00:25:22;;;;;;;;;;;11.80;99.90;12.30;100347.00;;;;339045;28;83583;-92
2023/01/06 00:25:34;;;;;;;;;;;11.80;99.90;12.20;100343.00;;;;345640;28;91335;-92
2023/01/06 00:25:49;;;;;;;;;;;11.80;99.90;12.30;100348.00;;;;343529;28;82473;-92
2023/01/06 00:26:01;;;;;;;;;;;11.80;99.90;12.20;100350.00;;;;338699;28;91801;-92
2023/01/06 00:26:13;;;;;;;;;;;11.80;99.90;12.20;100342.00;;;;337911;28;83378;-91
2023/01/06 00:26:25;;;;;;;;;;;11.80;99.90;12.20;100351.00;;;;336161;28;90828;-92
2023/01/06 00:26:37;;;;;;;;;;;11.90;99.90;12.30;100344.00;;;;339186;28;82519;-92
2023/01/06 00:26:49;;;;;;;;;;;11.80;99.90;12.40;100350.00;;;;338706;28;92159;-92
2023/01/06 00:27:01;;;;;;;;;;;11.80;99.90;12.40;100348.00;;;;342107;28;82386;-92
2023/01/06 00:27:12;;;;;;;;;;;11.90;99.90;12.30;100350.00;;;;343145;28;88058;-92
2023/01/06 00:27:24;;;;;;;;;;;11.90;99.90;12.20;100346.00;;;;337592;28;83387;-92
2023/01/06 00:27:37;;;;;;;;;;;11.90;99.90;12.20;100341.00;;;;338758;28;90219;-92
2023/01/06 00:27:49;;;;;;;;;;;11.90;99.90;12.10;100343.00;;;;343433;28;83252;-92
2023/01/06 00:28:00;;;;;;;;;;;11.90;99.90;12.10;100342.00;;;;342984;28;90244;-92
2023/01/06 00:28:12;;;;;;;;;;;11.90;99.90;12.10;100345.00;;;;339233;28;82574;-91
2023/01/06 00:28:24;;;;;;;;;;;11.80;99.90;12.10;100345.00;;;;337486;28;91295;-91
2023/01/06 00:28:36;;;;;;;;;;;11.90;99.90;12.10;100340.00;;;;337834;28;83038;-92
2023/01/06 00:28:51;;;;;;;;;;;11.90;99.90;12.00;100344.00;;;;338603;28;93015;-92
2023/01/06 00:29:03;;;;;;;;;;;11.80;99.90;12.20;100347.00;;;;339142;28;82511;-92
2023/01/06 00:29:15;;;;;;;;;;;11.80;99.90;12.20;100350.00;;;;340174;28;90362;-92
2023/01/06 00:29:27;;;;;;;;;;;11.80;99.90;12.30;100341.00;;;;340480;28;83438;-92
2023/01/06 00:29:38;;;;;;;;;;;11.80;99.90;12.20;100350.00;;;;340116;28;90512;-93
2023/01/06 00:29:50;;;;;;;;;;;11.80;99.90;12.20;100354.00;;;;339223;28;82479;-92
2023/01/06 00:30:03;;;;;;;;;;;11.80;99.90;12.30;100348.00;;;;337276;28;91455;-91
2023/01/06 00:30:14;;;;;;;;;;;11.80;99.90;12.30;100339.00;;;;336487;28;83486;-91
2023/01/06 00:30:26;;;;;;;;;;;11.90;99.90;12.20;100342.00;;;;336141;28;91521;-92
2023/01/06 00:30:38;;;;;;;;;;;11.80;99.90;12.30;100349.00;;;;337858;28;82434;-92
2023/01/06 00:30:50;;;;;;;;;;;11.80;99.90;12.30;100343.00;;;;339972;28;92755;-92
2023/01/06 00:31:09;;;;;;;;;;;11.90;99.90;12.30;100338.00;;;;337844;28;82639;-92
2023/01/06 00:31:21;;;;;;;;;;;11.80;99.90;12.30;100349.00;;;;338364;28;91864;-92
2023/01/06 00:31:33;;;;;;;;;;;11.90;99.90;12.30;100342.00;;;;337818;28;83472;-92
2023/01/06 00:31:45;;;;;;;;;;;11.90;99.90;12.30;100343.00;;;;343015;28;90456;-91
2023/01/06 00:32:00;;;;;;;;;;;11.90;99.90;12.20;100348.00;;;;344716;28;83358;-92
2023/01/06 00:32:12;;;;;;;;;;;11.80;99.90;12.20;100341.00;;;;338857;28;90183;-91
2023/01/06 00:32:23;;;;;;;;;;;11.90;99.90;12.20;100343.00;;;;337853;28;83453;-92
2023/01/06 00:32:35;;;;;;;;;;;11.80;99.90;12.20;100346.00;;;;337372;28;91789;-92
2023/01/06 00:32:47;;;;;;;;;;;11.80;99.90;12.30;100345.00;;;;339091;28;82434;-92
2023/01/06 00:32:59;;;;;;;;;;;11.80;99.90;12.30;100344.00;;;;337389;28;92183;-91
2023/01/06 00:33:11;;;;;;;;;;;11.80;99.90;12.30;100345.00;;;;340478;28;83550;-92
2023/01/06 00:33:23;;;;;;;;;;;11.80;99.90;12.40;100347.00;;;;339962;28;91537;-92
2023/01/06 00:33:35;;;;;;;;;;;11.90;99.90;12.40;100335.00;;;;340302;28;82420;-92
2023/01/06 00:33:46;;;;;;;;;;;11.90;99.90;12.40;100349.00;;;;341340;28;91794;-91
2023/01/06 00:33:58;;;;;;;;;;;11.90;99.90;12.40;100345.00;;;;340477;28;82480;-92
2023/01/06 00:34:10;;;;;;;;;;;11.90;99.90;12.40;100347.00;;;;337408;28;90310;-93
2023/01/06 00:34:22;;;;;;;;;;;11.90;99.90;12.50;100345.00;;;;340504;28;83449;-92
2023/01/06 00:34:34;;;;;;;;;;;11.90;99.90;12.40;100346.00;;;;340010;28;91280;-92
2023/01/06 00:34:46;;;;;;;;;;;11.90;99.90;12.40;100349.00;;;;339122;28;82594;-92
2023/01/06 00:34:57;;;;;;;;;;;11.90;99.90;12.40;100342.00;;;;338678;28;91946;-92
2023/01/06 00:35:09;;;;;;;;;;;11.90;99.90;12.40;100338.00;;;;339161;28;82486;-92
2023/01/06 00:35:21;;;;;;;;;;;11.90;99.90;12.40;100340.00;;;;338661;28;91520;-92
2023/01/06 00:35:33;;;;;;;;;;;11.90;99.90;12.40;100337.00;;;;346200;28;83415;-92
2023/01/06 00:35:44;;;;;;;;;;;11.90;99.90;12.40;100347.00;;;;344069;28;91201;-92
2023/01/06 00:35:59;;;;;;;;;;;12.00;99.90;12.40;100342.00;;;;340515;28;83344;-92
2023/01/06 00:36:11;;;;;;;;;;;11.90;99.90;12.40;100341.00;;;;338775;28;88524;-91
2023/01/06 00:36:23;;;;;;;;;;;12.00;99.90;12.40;100337.00;;;;337870;28;83387;-91
2023/01/06 00:36:35;;;;;;;;;;;12.00;99.90;12.40;100343.00;;;;336106;28;90809;-92
2023/01/06 00:36:47;;;;;;;;;;;11.90;99.90;12.20;100342.00;;;;337925;28;82533;-91
2023/01/06 00:36:59;;;;;;;;;;;12.00;99.90;12.20;100342.00;;;;344268;28;92301;-92
2023/01/06 00:37:10;;;;;;;;;;;11.90;99.90;12.20;100344.00;;;;346141;28;83413;-92
2023/01/06 00:37:22;;;;;;;;;;;11.90;99.90;12.10;100339.00;;;;339945;28;91540;-92
2023/01/06 00:37:34;;;;;;;;;;;11.90;99.90;12.00;100340.00;;;;337855;28;82530;-91
2023/01/06 00:37:46;;;;;;;;;;;11.90;99.90;12.10;100338.00;;;;337410;28;91218;-92
2023/01/06 00:37:58;;;;;;;;;;;11.90;99.90;12.00;100350.00;;;;338875;28;83464;-92
2023/01/06 00:38:10;;;;;;;;;;;11.80;99.90;12.00;100347.00;;;;337381;28;91647;-91
2023/01/06 00:38:21;;;;;;;;;;;11.90;99.90;12.00;100340.00;;;;337857;28;83435;-92
2023/01/06 00:38:36;;;;;;;;;;;11.80;99.90;12.20;100347.00;;;;338833;28;89147;-92
2023/01/06 00:38:49;;;;;;;;;;;11.80;99.90;12.20;100334.00;;;;336512;28;82580;-91
2023/01/06 00:39:00;;;;;;;;;;;11.80;99.90;12.10;100340.00;;;;338657;28;91703;-91
2023/01/06 00:39:12;;;;;;;;;;;11.80;99.90;12.20;100335.00;;;;337819;28;83360;-91
2023/01/06 00:39:24;;;;;;;;;;;11.80;99.90;12.30;100342.00;;;;340025;28;91072;-92
2023/01/06 00:39:36;;;;;;;;;;;11.80;99.90;12.30;100343.00;;;;339167;28;83449;-91
2023/01/06 00:39:48;;;;;;;;;;;11.90;99.90;12.30;100347.00;;;;338716;28;90416;-91
2023/01/06 00:39:59;;;;;;;;;;;11.80;99.90;12.30;100351.00;;;;341545;28;83404;-91
2023/01/06 00:40:11;;;;;;;;;;;11.90;99.90;12.30;100347.00;;;;338712;28;91095;-92
2023/01/06 00:40:23;;;;;;;;;;;11.90;99.90;12.30;100342.00;;;;341837;28;83450;-92
2023/01/06 00:40:36;;;;;;;;;;;11.90;99.90;12.20;100337.00;;;;340043;28;90596;-91
2023/01/06 00:40:47;;;;;;;;;;;11.90;99.90;12.20;100345.00;;;;339123;28;83052;-93
2023/01/06 00:41:01;;;;;;;;;;;11.90;99.90;12.20;100347.00;;;;338734;28;92311;-93
2023/01/06 00:42:14;;;;;;;;;;;11.90;99.90;12.20;100342.00;;;;337841;28;82577;-92
2023/01/06 00:42:26;;;;;;;;;;;11.90;99.90;12.20;100338.00;;;;340065;28;91777;-92
2023/01/06 00:42:37;;;;;;;;;;;11.90;99.90;12.20;100346.00;;;;339184;28;82498;-91
2023/01/06 00:42:49;;;;;;;;;;;11.80;99.90;12.30;100347.00;;;;340114;28;90408;-91
2023/01/06 00:43:01;;;;;;;;;;;11.90;99.90;12.20;100343.00;;;;339058;28;83380;-93
2023/01/06 00:43:13;;;;;;;;;;;11.80;99.90;12.30;100346.00;;;;339740;28;89394;-93
2023/01/06 00:43:26;;;;;;;;;;;11.90;99.90;12.30;100340.00;;;;336364;28;82462;-93
2023/01/06 00:43:38;;;;;;;;;;;11.90;99.90;12.30;100342.00;;;;335976;28;92505;-91
2023/01/06 00:43:49;;;;;;;;;;;11.80;99.90;12.30;100344.00;;;;339161;28;82504;-92
2023/01/06 00:44:01;;;;;;;;;;;11.90;99.90;12.40;100340.00;;;;340013;28;91261;-91
2023/01/06 00:44:13;;;;;;;;;;;11.90;99.90;12.30;100347.00;;;;337921;28;83243;-92
2023/01/06 00:44:25;;;;;;;;;;;11.90;99.90;12.30;100350.00;;;;345720;28;90372;-92
2023/01/06 00:44:37;;;;;;;;;;;11.90;99.90;12.20;100348.00;;;;344692;28;83505;-91
2023/01/06 00:44:49;;;;;;;;;;;11.90;99.90;12.30;100343.00;;;;338698;28;91485;-92
2023/01/06 00:45:01;;;;;;;;;;;11.90;99.90;12.20;100348.00;;;;340428;28;83354;-91
2023/01/06 00:45:14;;;;;;;;;;;11.90;99.90;12.10;100341.00;;;;337450;28;91322;-92
2023/01/06 00:45:25;;;;;;;;;;;11.90;99.90;12.10;100339.00;;;;339108;28;83240;-91
2023/01/06 00:45:37;;;;;;;;;;;11.80;99.90;12.00;100344.00;;;;338696;28;91588;-91
2023/01/06 00:45:49;;;;;;;;;;;11.80;99.90;11.90;100348.00;;;;339056;28;82426;-92
2023/01/06 00:46:01;;;;;;;;;;;11.80;99.90;11.90;100355.00;;;;338466;28;90719;-91
2023/01/06 00:46:13;;;;;;;;;;;11.80;99.90;12.00;100349.00;;;;337870;28;83380;-92
2023/01/06 00:46:27;;;;;;;;;;;11.80;99.90;12.10;100348.00;;;;338687;28;91802;-92
2023/01/06 00:46:40;;;;;;;;;;;11.80;99.90;12.10;100344.00;;;;339154;28;82555;-92
2023/01/06 00:46:52;;;;;;;;;;;11.80;99.90;12.10;100346.00;;;;340127;28;89928;-93
2023/01/06 00:47:05;;;;;;;;;;;11.80;99.90;12.00;100345.00;;;;341887;28;83251;-92
2023/01/06 00:47:17;;;;;;;;;;;11.80;99.90;12.00;100350.00;;;;334776;29;90178;-91
2023/01/06 00:47:29;;;;;;;;;;;11.70;99.90;12.10;100349.00;;;;339182;28;82431;-91
2023/01/06 00:47:41;;;;;;;;;;;11.70;99.90;12.20;100352.00;;;;338635;28;92565;-91
2023/01/06 00:47:53;;;;;;;;;;;11.70;99.90;12.00;100341.00;;;;344858;28;82459;-91
2023/01/06 00:48:04;;;;;;;;;;;11.70;99.90;11.90;100355.00;;;;347026;28;91856;-92
2023/01/06 00:48:16;;;;;;;;;;;11.70;99.90;11.90;100344.00;;;;338995;28;84080;-92
2023/01/06 00:48:28;;;;;;;;;;;11.70;99.90;11.90;100345.00;;;;337386;28;91239;-92
2023/01/06 00:48:40;;;;;;;;;;;11.70;99.90;11.90;100354.00;;;;336579;28;82265;-92
2023/01/06 00:49:03;;;;;;;;;;;11.70;99.90;11.90;100352.00;;;;338702;28;91350;-91
2023/01/06 00:49:17;;;;;;;;;;;11.70;99.90;12.00;100347.00;;;;336554;28;83260;-92
2023/01/06 00:49:29;;;;;;;;;;;11.70;99.90;12.00;100350.00;;;;337387;28;91127;-92
2023/01/06 00:49:41;;;;;;;;;;;11.70;99.90;12.00;100350.00;;;;339140;28;83192;-92
2023/01/06 00:49:53;;;;;;;;;;;11.70;99.90;12.10;100347.00;;;;338785;28;91085;-91
2023/01/06 00:50:05;;;;;;;;;;;11.70;99.90;12.00;100349.00;;;;337926;28;83397;-92
2023/01/06 00:50:17;;;;;;;;;;;11.70;99.90;11.90;100352.00;;;;342929;28;91066;-92
2023/01/06 00:50:28;;;;;;;;;;;11.70;99.90;11.90;100350.00;;;;346040;28;83471;-92
2023/01/06 00:50:40;;;;;;;;;;;11.60;99.90;12.00;100342.00;;;;339978;28;91530;-92
2023/01/06 00:50:59;;;;;;;;;;;11.70;99.90;11.90;100353.00;;;;340505;28;82348;-91
2023/01/06 00:51:11;;;;;;;;;;;11.70;99.90;11.90;100349.00;;;;337503;28;89698;-92
2023/01/06 00:51:22;;;;;;;;;;;11.60;99.90;12.00;100346.00;;;;338158;28;82547;-93
2023/01/06 00:51:36;;;;;;;;;;;11.60;99.90;12.10;100351.00;;;;341497;28;90597;-92
2023/01/06 00:51:48;;;;;;;;;;;11.70;99.90;12.10;100347.00;;;;336560;28;83402;-91
2023/01/06 00:52:00;;;;;;;;;;;11.70;99.90;12.00;100349.00;;;;339771;28;92706;-91
2023/01/06 00:52:12;;;;;;;;;;;11.70;99.90;12.00;100345.00;;;;339125;28;82484;-92
2023/01/06 00:52:24;;;;;;;;;;;11.70;99.90;12.00;100346.00;;;;336025;28;90595;-92
2023/01/06 00:52:36;;;;;;;;;;;11.60;99.90;12.00;100349.00;;;;339148;28;82537;-91
2023/01/06 00:52:47;;;;;;;;;;;11.70;99.90;12.10;100348.00;;;;340034;28;91524;-92
2023/01/06 00:52:59;;;;;;;;;;;11.60;99.90;12.00;100340.00;;;;340524;28;83213;-91
2023/01/06 00:53:11;;;;;;;;;;;11.60;99.90;11.90;100346.00;;;;338715;28;91583;-92
2023/01/06 00:53:23;;;;;;;;;;;11.60;99.90;11.90;100347.00;;;;341728;28;83408;-92
2023/01/06 00:53:35;;;;;;;;;;;11.60;99.90;11.90;100348.00;;;;340133;28;90325;-93
2023/01/06 00:53:46;;;;;;;;;;;11.60;99.90;12.00;100335.00;;;;339177;28;82481;-92
2023/01/06 00:53:59;;;;;;;;;;;11.60;99.90;12.00;100344.00;;;;338672;28;90760;-92
2023/01/06 00:54:11;;;;;;;;;;;11.60;99.90;12.10;100338.00;;;;337898;28;83383;-91
2023/01/06 00:54:23;;;;;;;;;;;11.60;99.90;12.10;100339.00;;;;338692;28;91501;-92
2023/01/06 00:54:38;;;;;;;;;;;11.60;99.90;12.00;100339.00;;;;339130;28;83353;-92
2023/01/06 00:54:50;;;;;;;;;;;11.60;99.90;12.00;100335.00;;;;339982;28;90160;-91
2023/01/06 00:55:01;;;;;;;;;;;11.60;99.90;11.90;100337.00;;;;339147;28;84259;-92
2023/01/06 00:55:13;;;;;;;;;;;11.60;99.90;11.90;100338.00;;;;340100;28;90162;-92
2023/01/06 00:55:25;;;;;;;;;;;11.60;99.90;11.90;100336.00;;;;339145;28;83319;-92
2023/01/06 00:55:37;;;;;;;;;;;11.60;99.90;11.90;100339.00;;;;338708;28;91450;-91
2023/01/06 00:55:49;;;;;;;;;;;11.60;99.90;11.80;100340.00;;;;338908;28;83415;-92
2023/01/06 00:56:01;;;;;;;;;;;11.60;99.90;11.80;100346.00;;;;341151;28;92550;-91
2023/01/06 00:56:12;;;;;;;;;;;11.60;99.90;12.00;100339.00;;;;339178;28;83366;-92
2023/01/06 00:56:24;;;;;;;;;;;11.60;99.90;12.00;100339.00;;;;338685;28;91642;-91
2023/01/06 00:56:37;;;;;;;;;;;11.60;99.90;12.10;100335.00;;;;340422;28;83495;-92
2023/01/06 00:56:50;;;;;;;;;;;11.60;99.90;12.10;100343.00;;;;337375;28;91478;-91
2023/01/06 00:57:01;;;;;;;;;;;11.60;99.90;12.00;100338.00;;;;339182;28;83336;-92
2023/01/06 00:57:13;;;;;;;;;;;11.60;99.90;11.90;100332.00;;;;338768;28;90994;-92
2023/01/06 00:57:25;;;;;;;;;;;11.60;99.90;11.80;100341.00;;;;340492;28;83455;-91
2023/01/06 00:57:38;;;;;;;;;;;11.60;99.90;11.80;100336.00;;;;340035;28;91612;-92
2023/01/06 00:57:51;;;;;;;;;;;11.60;99.90;11.90;100343.00;;;;340496;28;83400;-92
2023/01/06 00:58:03;;;;;;;;;;;11.60;99.90;11.90;100347.00;;;;339874;28;92480;-92
2023/01/06 00:58:15;;;;;;;;;;;11.60;99.90;12.00;100338.00;;;;346082;28;83413;-93
2023/01/06 00:58:30;;;;;;;;;;;11.60;99.90;12.00;100339.00;;;;342731;28;90537;-92
2023/01/06 00:58:42;;;;;;;;;;;11.60;99.90;12.10;100330.00;;;;337543;28;83558;-92
2023/01/06 00:58:53;;;;;;;;;;;11.60;99.90;12.00;100340.00;;;;338324;28;91208;-91
2023/01/06 00:59:05;;;;;;;;;;;11.60;99.90;12.00;100332.00;;;;339082;28;83395;-91
2023/01/06 00:59:19;;;;;;;;;;;11.60;99.90;12.10;100331.00;;;;341465;28;91281;-91
2023/01/06 00:59:31;;;;;;;;;;;11.60;99.90;12.10;100335.00;;;;339088;28;83363;-92
2023/01/06 00:59:43;;;;;;;;;;;11.60;99.90;12.10;100339.00;;;;338795;28;91551;-92
2023/01/06 00:59:54;;;;;;;;;;;11.60;99.90;12.10;100337.00;;;;339209;28;82472;-92
2023/01/06 01:00:08;;;;;;;;;;;11.60;99.90;12.10;100337.00;;;;337208;28;92310;-91
2023/01/06 01:00:20;;;;;;;;;;;11.60;99.90;12.10;100338.00;;;;337306;28;83479;-91
2023/01/06 01:00:31;;;;;;;;;;;11.60;99.90;12.10;100341.00;;;;338693;28;89082;-92
2023/01/06 01:00:43;;;;;;;;;;;11.60;99.90;12.20;100338.00;;;;339135;28;82480;-92
2023/01/06 01:00:55;;;;;;;;;;;11.60;99.90;12.10;100342.00;;;;338801;28;89835;-92
2023/01/06 01:01:07;;;;;;;;;;;11.60;99.90;12.10;100335.00;;;;341821;28;82554;-92
2023/01/06 01:01:19;;;;;;;;;;;11.60;99.90;12.10;100336.00;;;;337387;28;91303;-92